createdAt,value
2022-10-18T00:02:20.185Z,99505.44
2022-10-18T00:04:47.043Z,99507.38
2022-10-18T00:07:13.602Z,99499.91
2022-10-18T00:09:39.933Z,99508.66
2022-10-18T00:12:06.335Z,99518.94
2022-10-18T00:14:32.880Z,99509.59
2022-10-18T00:16:59.341Z,99512.94
2022-10-18T00:19:28.533Z,99517.97
2022-10-18T00:21:55.831Z,99523.03
2022-10-18T00:24:22.209Z,99526.50
2022-10-18T00:26:48.613Z,99526.03
2022-10-18T00:29:16.258Z,99525.38
2022-10-18T00:31:46.820Z,99524.56
2022-10-18T00:34:15.196Z,99525.66
2022-10-18T00:36:42.843Z,99538.91
2022-10-18T00:39:15.479Z,99532.84
2022-10-18T00:41:42.136Z,99526.34
2022-10-18T00:44:11.587Z,99535.03
2022-10-18T00:46:41.113Z,99522.47
2022-10-18T00:49:16.087Z,99527.03
2022-10-18T00:51:49.784Z,99527.97
2022-10-18T00:54:18.024Z,99526.94
2022-10-18T00:56:45.176Z,99528.16
2022-10-18T00:59:14.868Z,99525.56
2022-10-18T01:01:41.387Z,99529.00
2022-10-18T01:04:08.477Z,99535.22
2022-10-18T01:09:47.318Z,99530.00
2022-10-18T01:12:44.683Z,99532.00
2022-10-18T01:15:26.380Z,99521.19
2022-10-18T01:18:05.752Z,99524.59
2022-10-18T01:21:14.488Z,99533.66
2022-10-18T01:23:40.811Z,99534.38
2022-10-18T01:26:36.188Z,99525.34
2022-10-18T01:29:33.302Z,99525.34
2022-10-18T01:32:04.216Z,99530.75
2022-10-18T01:34:35.047Z,99527.75
2022-10-18T01:37:04.845Z,99527.75
2022-10-18T01:39:38.220Z,99522.53
2022-10-18T01:42:08.787Z,99526.47
2022-10-18T01:44:38.098Z,99524.78
2022-10-18T01:47:07.940Z,99511.06
2022-10-18T01:49:34.501Z,99518.72
2022-10-18T01:52:00.877Z,99515.00
2022-10-18T01:54:37.241Z,99523.66
2022-10-18T01:57:08.740Z,99511.81
2022-10-18T01:59:47.458Z,99519.56
2022-10-18T02:02:35.272Z,99508.38
2022-10-18T02:05:31.632Z,99511.00
2022-10-18T02:08:22.919Z,99516.41
2022-10-18T02:11:07.734Z,99509.13
2022-10-18T02:13:41.753Z,99513.94
2022-10-18T02:16:16.582Z,99517.41
2022-10-18T02:18:51.841Z,99509.84
2022-10-18T02:21:21.083Z,99517.88
2022-10-18T02:23:48.643Z,99521.97
2022-10-18T02:26:15.952Z,99513.75
2022-10-18T02:28:43.071Z,99521.84
2022-10-18T02:31:27.140Z,99517.69
2022-10-18T02:34:06.910Z,99508.91
2022-10-18T02:36:42.978Z,99524.00
2022-10-18T02:39:16.563Z,99517.69
2022-10-18T02:41:43.501Z,99522.34
2022-10-18T02:44:11.149Z,99517.41
2022-10-18T02:46:38.583Z,99526.44
2022-10-18T02:49:04.991Z,99543.94
2022-10-18T02:51:31.922Z,99552.56
2022-10-18T02:53:58.296Z,99559.75
2022-10-18T02:56:24.779Z,99570.28
2022-10-18T02:58:51.072Z,99581.06
2022-10-18T03:01:17.561Z,99561.38
2022-10-18T03:03:44.180Z,99562.69
2022-10-18T03:06:10.567Z,99564.09
2022-10-18T03:08:36.954Z,99568.34
2022-10-18T03:11:03.258Z,99564.66
2022-10-18T03:15:56.005Z,99558.50
2022-10-18T03:18:22.511Z,99560.19
2022-10-18T03:20:48.868Z,99558.16
2022-10-18T03:23:15.253Z,99569.56
2022-10-18T03:25:44.248Z,99567.53
2022-10-18T03:28:12.793Z,99554.19
2022-10-18T03:30:39.182Z,99571.28
2022-10-18T03:33:08.722Z,99565.03
2022-10-18T03:35:35.092Z,99565.09
2022-10-18T03:38:01.472Z,99564.13
2022-10-18T03:40:27.970Z,99563.78
2022-10-18T03:42:54.440Z,99565.16
2022-10-18T03:45:20.818Z,99565.16
2022-10-18T03:47:47.190Z,99565.34
2022-10-18T03:50:13.627Z,99575.81
2022-10-18T03:52:40.070Z,99562.75
2022-10-18T03:55:06.731Z,99571.72
2022-10-18T03:57:33.320Z,99563.09
2022-10-18T03:59:59.600Z,99566.00
2022-10-18T04:02:26.089Z,99572.53
2022-10-18T04:04:52.789Z,99578.19
2022-10-18T04:07:19.204Z,99574.28
2022-10-18T04:09:45.595Z,99561.81
2022-10-18T04:12:11.961Z,99574.06
2022-10-18T04:14:38.345Z,99572.41
2022-10-18T04:17:04.858Z,99574.59
2022-10-18T04:19:31.213Z,99572.94
2022-10-18T04:21:57.844Z,99582.22
2022-10-18T04:24:24.312Z,99569.41
2022-10-18T04:26:50.636Z,99569.41
2022-10-18T04:29:19.502Z,99568.56
2022-10-18T04:31:46.681Z,99563.69
2022-10-18T04:34:13.169Z,99553.09
2022-10-18T04:36:39.565Z,99555.44
2022-10-18T04:39:07.970Z,99559.69
2022-10-18T04:41:34.445Z,99559.03
2022-10-18T04:44:00.841Z,99568.47
2022-10-18T04:46:27.298Z,99558.34
2022-10-18T04:48:53.660Z,99563.22
2022-10-18T04:51:20.377Z,99571.19
2022-10-18T04:53:46.773Z,99566.81
2022-10-18T04:56:13.173Z,99571.34
2022-10-18T04:58:39.657Z,99560.41
2022-10-18T05:01:06.590Z,99564.59
2022-10-18T05:03:33.628Z,99564.59
2022-10-18T05:06:03.148Z,99575.91
2022-10-18T05:08:30.866Z,99558.72
2022-10-18T05:10:57.405Z,99565.94
2022-10-18T05:13:23.911Z,99570.81
2022-10-18T05:15:50.472Z,99563.75
2022-10-18T05:18:16.818Z,99565.75
2022-10-18T05:20:43.335Z,99563.88
2022-10-18T05:23:12.589Z,99560.31
2022-10-18T05:25:40.285Z,99554.59
2022-10-18T05:28:10.774Z,99565.03
2022-10-18T05:30:47.786Z,99557.41
2022-10-18T05:33:14.113Z,99562.66
2022-10-18T05:35:40.549Z,99572.78
2022-10-18T05:38:07.045Z,99566.19
2022-10-18T05:40:33.629Z,99565.81
2022-10-18T05:43:00.045Z,99568.84
2022-10-18T05:45:26.606Z,99572.53
2022-10-18T05:47:52.958Z,99572.19
2022-10-18T05:50:19.536Z,99567.66
2022-10-18T05:52:45.924Z,99569.00
2022-10-18T05:55:12.337Z,99558.19
2022-10-18T05:57:38.749Z,99555.63
2022-10-18T06:00:05.460Z,99557.78
2022-10-18T06:02:38.378Z,99562.66
2022-10-18T06:05:05.269Z,99565.66
2022-10-18T06:07:31.977Z,99565.31
2022-10-18T06:09:58.569Z,99572.38
2022-10-18T06:12:25.119Z,99564.28
2022-10-18T06:14:51.518Z,99568.50
2022-10-18T06:17:17.916Z,99574.22
2022-10-18T06:19:44.418Z,99569.13
2022-10-18T06:22:11.164Z,99579.56
2022-10-18T06:24:37.943Z,99570.44
2022-10-18T06:27:08.746Z,99573.38
2022-10-18T06:29:38.555Z,99576.75
2022-10-18T06:32:06.440Z,99588.84
2022-10-18T06:34:33.340Z,99579.22
2022-10-18T06:37:00.153Z,99587.41
2022-10-18T06:39:26.947Z,99590.41
2022-10-18T06:41:53.633Z,99588.88
2022-10-18T06:44:21.238Z,99586.28
2022-10-18T06:46:48.817Z,99593.28
2022-10-18T06:49:18.992Z,99588.75
2022-10-18T06:51:46.158Z,99591.66
2022-10-18T06:54:18.119Z,99587.66
2022-10-18T06:56:45.721Z,99593.50
2022-10-18T06:59:12.223Z,99603.31
2022-10-18T07:01:38.683Z,99598.41
2022-10-18T07:04:05.217Z,99607.75
2022-10-18T07:06:31.544Z,99607.69
2022-10-18T07:08:57.971Z,99611.31
2022-10-18T07:11:25.385Z,99610.34
2022-10-18T07:13:54.417Z,99611.56
2022-10-18T07:16:21.162Z,99606.06
2022-10-18T07:18:50.309Z,99615.09
2022-10-18T07:21:19.350Z,99618.09
2022-10-18T07:23:46.756Z,99625.84
2022-10-18T07:26:19.385Z,99632.97
2022-10-18T07:28:49.010Z,99638.41
2022-10-18T07:31:16.009Z,99631.28
2022-10-18T07:33:45.173Z,99648.25
2022-10-18T07:36:12.649Z,99636.91
2022-10-18T07:38:39.754Z,99627.50
2022-10-18T07:41:07.602Z,99636.47
2022-10-18T07:43:35.291Z,99636.69
2022-10-18T07:46:04.478Z,99637.31
2022-10-18T07:48:31.252Z,99633.13
2022-10-18T07:51:00.491Z,99628.91
2022-10-18T07:53:27.703Z,99637.31
2022-10-18T07:56:01.343Z,99634.38
2022-10-18T07:58:32.033Z,99627.25
2022-10-18T08:01:03.262Z,99636.06
2022-10-18T08:03:29.699Z,99635.53
2022-10-18T08:05:56.488Z,99624.91
2022-10-18T08:08:23.812Z,99622.19
2022-10-18T08:10:50.584Z,99624.09
2022-10-18T08:13:17.407Z,99635.53
2022-10-18T08:15:44.325Z,99635.84
2022-10-18T08:18:11.596Z,99626.00
2022-10-18T08:20:43.289Z,99632.91
2022-10-18T08:23:09.810Z,99633.00
2022-10-18T08:28:07.788Z,99628.19
2022-10-18T08:30:35.735Z,99624.59
2022-10-18T08:33:03.158Z,99631.09
2022-10-18T08:35:29.575Z,99635.34
2022-10-18T08:37:56.004Z,99630.22
2022-10-18T08:40:22.516Z,99629.75
2022-10-18T08:43:03.858Z,99631.50
2022-10-18T08:45:41.827Z,99626.50
2022-10-18T08:48:19.237Z,99631.06
2022-10-18T08:50:46.683Z,99625.63
2022-10-18T08:53:25.177Z,99632.22
2022-10-18T08:56:15.096Z,99631.00
2022-10-18T08:58:44.943Z,99637.34
2022-10-18T09:01:33.014Z,99645.38
2022-10-18T09:04:24.569Z,99639.91
2022-10-18T09:07:20.087Z,99637.31
2022-10-18T09:10:00.992Z,99641.66
2022-10-18T09:13:12.247Z,99639.94
2022-10-18T09:16:03.834Z,99628.59
2022-10-18T09:18:57.160Z,99647.00
2022-10-18T09:21:36.881Z,99638.97
2022-10-18T09:24:20.671Z,99648.16
2022-10-18T09:26:51.721Z,99649.59
2022-10-18T09:29:47.792Z,99653.00
2022-10-18T09:32:23.329Z,99659.91
2022-10-18T09:35:08.694Z,99656.47
2022-10-18T09:37:35.232Z,99656.06
2022-10-18T09:40:18.847Z,99659.72
2022-10-18T09:43:16.045Z,99647.91
2022-10-18T09:45:45.736Z,99647.22
2022-10-18T09:48:36.590Z,99651.53
2022-10-18T09:51:12.086Z,99650.31
2022-10-18T09:54:04.323Z,99648.78
2022-10-18T09:56:40.858Z,99648.28
2022-10-18T09:59:32.376Z,99652.22
2022-10-18T10:01:58.865Z,99644.13
2022-10-18T10:04:25.303Z,99645.06
2022-10-18T10:06:54.601Z,99651.94
2022-10-18T10:09:36.069Z,99641.50
2022-10-18T10:12:03.141Z,99642.47
2022-10-18T10:14:30.686Z,99647.22
2022-10-18T10:17:02.391Z,99642.97
2022-10-18T10:20:02.065Z,99634.00
2022-10-18T10:22:35.932Z,99637.53
2022-10-18T10:25:02.961Z,99646.25
2022-10-18T10:27:43.938Z,99640.56
2022-10-18T10:30:34.962Z,99651.50
2022-10-18T10:33:03.535Z,99649.16
2022-10-18T10:35:54.459Z,99655.66
2022-10-18T10:38:26.560Z,99640.91
2022-10-18T10:40:54.052Z,99637.59
2022-10-18T10:43:39.326Z,99638.72
2022-10-18T10:46:09.931Z,99631.47
2022-10-18T10:49:20.778Z,99636.66
2022-10-18T10:51:43.806Z,99633.47
2022-10-18T10:54:16.833Z,99641.03
2022-10-18T10:57:05.076Z,99630.72
2022-10-18T11:02:19.012Z,99640.38
2022-10-18T11:04:47.366Z,99645.72
2022-10-18T11:07:34.977Z,99629.50
2022-10-18T11:10:07.497Z,99632.31
2022-10-18T11:12:45.582Z,99641.28
2022-10-18T11:15:25.565Z,99633.47
2022-10-18T11:18:14.777Z,99640.91
2022-10-18T11:21:01.957Z,99628.31
2022-10-18T11:23:31.334Z,99625.97
2022-10-18T11:26:09.535Z,99636.50
2022-10-18T11:28:36.052Z,99639.81
2022-10-18T11:31:33.378Z,99632.97
2022-10-18T11:34:15.074Z,99632.97
2022-10-18T11:37:29.963Z,99625.34
2022-10-18T11:40:38.176Z,99636.94
2022-10-18T11:43:19.652Z,99633.13
2022-10-18T11:45:58.076Z,99628.81
2022-10-18T11:48:45.856Z,99605.13
2022-10-18T11:52:03.544Z,99610.16
2022-10-18T11:54:52.144Z,99616.50
2022-10-18T11:57:46.326Z,99606.06
2022-10-18T12:00:25.259Z,99609.59
2022-10-18T12:03:12.134Z,99605.06
2022-10-18T12:05:40.989Z,99607.00
2022-10-18T12:08:29.194Z,99595.13
2022-10-18T12:11:06.394Z,99589.78
2022-10-18T12:13:40.088Z,99588.78
2022-10-18T12:16:09.197Z,99589.34
2022-10-18T12:18:43.147Z,99586.53
2022-10-18T12:21:12.636Z,99581.19
2022-10-18T12:23:49.454Z,99580.72
2022-10-18T12:26:17.272Z,99588.81
2022-10-18T12:29:20.316Z,99582.00
2022-10-18T12:31:52.807Z,99585.47
2022-10-18T12:34:22.173Z,99580.25
2022-10-18T12:37:00.817Z,99577.94
2022-10-18T12:39:43.358Z,99575.06
2022-10-18T12:42:22.915Z,99568.88
2022-10-18T12:44:59.930Z,99565.84
2022-10-18T12:47:28.684Z,99568.94
2022-10-18T12:49:58.793Z,99564.47
2022-10-18T12:52:28.808Z,99556.09
2022-10-18T12:55:04.076Z,99560.91
2022-10-18T12:57:51.989Z,99566.22
2022-10-18T13:00:30.462Z,99559.47
2022-10-18T13:03:18.108Z,99555.44
2022-10-18T13:05:56.077Z,99560.94
2022-10-18T13:08:29.996Z,99553.97
2022-10-18T13:11:08.805Z,99550.09
2022-10-18T13:13:40.673Z,99548.59
2022-10-18T13:16:14.873Z,99542.97
2022-10-18T13:19:10.268Z,99550.34
2022-10-18T13:22:10.216Z,99539.25
2022-10-18T13:24:46.967Z,99541.28
2022-10-18T13:27:35.471Z,99553.03
2022-10-18T13:30:28.125Z,99540.72
2022-10-18T13:33:00.560Z,99546.38
2022-10-18T13:35:55.329Z,99541.78
2022-10-18T13:38:43.089Z,99542.03
2022-10-18T13:41:20.129Z,99535.34
2022-10-18T13:43:53.055Z,99541.19
2022-10-18T13:46:20.889Z,99544.56
2022-10-18T13:48:49.557Z,99545.22
2022-10-18T13:51:18.981Z,99546.75
2022-10-18T13:53:54.432Z,99545.50
2022-10-18T13:56:28.370Z,99546.28
2022-10-18T13:59:19.774Z,99539.50
2022-10-18T14:02:50.333Z,99549.13
2022-10-18T14:05:49.544Z,99549.63
2022-10-18T14:08:21.993Z,99552.66
2022-10-18T14:11:14.744Z,99544.44
2022-10-18T14:13:52.187Z,99546.09
2022-10-18T14:16:37.093Z,99548.03
2022-10-18T14:19:25.141Z,99548.28
2022-10-18T14:22:03.375Z,99544.84
2022-10-18T14:24:31.019Z,99537.03
2022-10-18T14:27:34.035Z,99539.78
2022-10-18T14:30:15.180Z,99533.97
2022-10-18T14:32:48.182Z,99544.66
2022-10-18T14:35:32.024Z,99535.13
2022-10-18T14:37:59.569Z,99530.06
2022-10-18T14:40:31.429Z,99524.22
2022-10-18T14:43:14.881Z,99521.16
2022-10-18T14:45:42.802Z,99520.88
2022-10-18T14:48:20.530Z,99525.34
2022-10-18T14:50:59.067Z,99522.03
2022-10-18T14:53:30.750Z,99520.31
2022-10-18T14:56:00.836Z,99526.59
2022-10-18T14:58:27.776Z,99527.41
2022-10-18T15:00:54.635Z,99525.06
2022-10-18T15:03:21.876Z,99525.88
2022-10-18T15:05:56.798Z,99524.81
2022-10-18T15:08:26.704Z,99529.97
2022-10-18T15:10:53.277Z,99521.75
2022-10-18T15:13:19.922Z,99525.13
2022-10-18T15:15:46.843Z,99528.75
2022-10-18T15:18:24.912Z,99521.34
2022-10-18T15:21:08.077Z,99516.66
2022-10-18T15:23:34.834Z,99518.09
2022-10-18T15:26:05.979Z,99522.91
2022-10-18T15:28:36.186Z,99512.78
2022-10-18T15:31:03.712Z,99511.59
2022-10-18T15:33:34.396Z,99513.41
2022-10-18T15:36:12.505Z,99515.59
2022-10-18T15:38:39.283Z,99512.03
2022-10-18T15:41:41.374Z,99509.06
2022-10-18T15:44:31.804Z,99511.84
2022-10-18T15:47:21.165Z,99509.47
2022-10-18T15:49:51.188Z,99514.53
2022-10-18T15:52:38.621Z,99511.94
2022-10-18T15:55:30.257Z,99511.25
2022-10-18T15:58:12.657Z,99519.44
2022-10-18T16:00:39.151Z,99515.38
2022-10-18T16:03:08.480Z,99512.34
2022-10-18T16:05:39.088Z,99512.28
2022-10-18T16:08:05.613Z,99512.88
2022-10-18T16:10:32.111Z,99503.66
2022-10-18T16:12:58.703Z,99503.72
2022-10-18T16:15:25.127Z,99498.84
2022-10-18T16:17:51.995Z,99506.44
2022-10-18T16:20:24.453Z,99512.75
2022-10-18T16:22:50.907Z,99508.84
2022-10-18T16:25:17.355Z,99505.16
2022-10-18T16:27:43.878Z,99513.41
2022-10-18T16:30:18.045Z,99510.47
2022-10-18T16:32:53.433Z,99518.47
2022-10-18T16:35:19.819Z,99510.53
2022-10-18T16:37:46.192Z,99512.88
2022-10-18T16:40:22.266Z,99521.84
2022-10-18T16:42:49.018Z,99520.59
2022-10-18T16:45:15.815Z,99516.06
2022-10-18T16:47:42.257Z,99524.84
2022-10-18T16:52:59.563Z,99534.06
2022-10-18T16:55:26.372Z,99534.06
2022-10-18T16:57:53.170Z,99545.59
2022-10-18T17:00:22.807Z,99548.31
2022-10-18T17:02:49.973Z,99555.00
2022-10-18T17:05:17.900Z,99548.44
2022-10-18T17:07:45.610Z,99552.00
2022-10-18T17:10:18.067Z,99552.84
2022-10-18T17:12:44.641Z,99554.69
2022-10-18T17:15:11.924Z,99554.28
2022-10-18T17:17:38.871Z,99560.69
2022-10-18T17:20:07.252Z,99559.69
2022-10-18T17:22:34.307Z,99567.78
2022-10-18T17:25:00.726Z,99559.81
2022-10-18T17:27:27.158Z,99557.34
2022-10-18T17:29:53.575Z,99565.84
2022-10-18T17:32:19.942Z,99571.91
2022-10-18T17:34:46.417Z,99574.00
2022-10-18T17:37:13.597Z,99577.72
2022-10-18T17:39:40.187Z,99574.72
2022-10-18T17:42:07.207Z,99580.38
2022-10-18T17:44:33.976Z,99583.44
2022-10-18T17:47:00.499Z,99582.59
2022-10-18T17:49:27.028Z,99585.53
2022-10-18T17:51:53.542Z,99584.66
2022-10-18T17:54:19.946Z,99583.38
2022-10-18T17:56:48.135Z,99588.19
2022-10-18T17:59:16.363Z,99582.34
2022-10-18T18:01:42.842Z,99574.34
2022-10-18T18:04:09.546Z,99582.06
2022-10-18T18:06:38.936Z,99590.44
2022-10-18T18:09:15.943Z,99578.25
2022-10-18T18:11:48.141Z,99587.25
2022-10-18T18:14:15.992Z,99593.66
2022-10-18T18:16:44.604Z,99599.44
2022-10-18T18:19:12.599Z,99592.03
2022-10-18T18:21:40.652Z,99596.00
2022-10-18T18:24:07.698Z,99589.53
2022-10-18T18:26:35.933Z,99593.50
2022-10-18T18:31:38.854Z,99585.56
2022-10-18T18:34:09.513Z,99588.81
2022-10-18T18:36:36.296Z,99586.25
2022-10-18T18:39:05.627Z,99589.16
2022-10-18T18:41:32.506Z,99581.59
2022-10-18T18:44:01.332Z,99594.72
2022-10-18T18:46:29.976Z,99586.97
2022-10-18T18:48:57.807Z,99588.19
2022-10-18T18:51:24.899Z,99588.56
2022-10-18T18:53:52.453Z,99588.53
2022-10-18T18:56:23.446Z,99591.16
2022-10-18T18:58:50.448Z,99590.59
2022-10-18T19:01:26.062Z,99590.69
2022-10-18T19:03:54.745Z,99590.13
2022-10-18T19:06:22.450Z,99585.25
2022-10-18T19:08:49.542Z,99582.50
2022-10-18T19:11:18.736Z,99585.72
2022-10-18T19:13:45.699Z,99584.88
2022-10-18T19:16:20.494Z,99589.06
2022-10-18T19:19:00.923Z,99589.63
2022-10-18T19:21:30.780Z,99580.59
2022-10-18T19:23:58.464Z,99583.94
2022-10-18T19:26:44.398Z,99586.78
2022-10-18T19:29:23.209Z,99578.47
2022-10-18T19:31:55.198Z,99583.91
2022-10-18T19:34:23.135Z,99588.44
2022-10-18T19:36:50.575Z,99584.44
2022-10-18T19:39:18.492Z,99583.81
2022-10-18T19:41:50.565Z,99581.22
2022-10-18T19:44:20.335Z,99575.41
2022-10-18T19:46:47.807Z,99577.41
2022-10-18T19:49:15.055Z,99571.16
2022-10-18T19:51:41.849Z,99570.88
2022-10-18T19:54:08.353Z,99581.81
2022-10-18T19:56:34.703Z,99571.72
2022-10-18T19:59:01.334Z,99568.00
2022-10-18T20:01:28.742Z,99571.53
2022-10-18T20:03:55.853Z,99570.06
2022-10-18T20:06:22.712Z,99561.63
2022-10-18T20:08:49.882Z,99577.16
2022-10-18T20:11:18.998Z,99582.56
2022-10-18T20:13:46.180Z,99571.09
2022-10-18T20:16:14.629Z,99575.84
2022-10-18T20:18:44.650Z,99577.06
2022-10-18T20:21:13.781Z,99582.13
2022-10-18T20:23:41.621Z,99582.78
2022-10-18T20:26:15.544Z,99577.00
2022-10-18T20:28:57.324Z,99573.34
2022-10-18T20:31:27.801Z,99581.66
2022-10-18T20:33:56.884Z,99584.47
2022-10-18T20:36:23.474Z,99585.50
2022-10-18T20:38:49.961Z,99578.03
2022-10-18T20:41:20.592Z,99581.19
2022-10-18T20:44:01.862Z,99585.88
2022-10-18T20:46:33.995Z,99577.75
2022-10-18T20:49:01.170Z,99581.09
2022-10-18T20:51:27.905Z,99586.66
2022-10-18T20:53:54.520Z,99570.47
2022-10-18T20:56:24.066Z,99576.06
2022-10-18T20:58:53.190Z,99581.84
2022-10-18T21:01:25.099Z,99577.19
2022-10-18T21:03:53.281Z,99570.16
2022-10-18T21:06:28.533Z,99580.78
2022-10-18T21:09:04.704Z,99572.38
2022-10-18T21:11:34.512Z,99573.13
2022-10-18T21:14:05.331Z,99566.91
2022-10-18T21:16:33.760Z,99568.28
2022-10-18T21:19:13.072Z,99565.97
2022-10-18T21:21:43.925Z,99557.56
2022-10-18T21:24:11.191Z,99551.81
2022-10-18T21:26:37.799Z,99562.31
2022-10-18T21:29:04.981Z,99560.09
2022-10-18T21:31:36.957Z,99551.81
2022-10-18T21:34:05.998Z,99550.50
2022-10-18T21:36:35.547Z,99555.53
2022-10-18T21:39:03.942Z,99549.84
2022-10-18T21:41:31.015Z,99558.75
2022-10-18T21:43:57.501Z,99547.78
2022-10-18T21:46:24.448Z,99549.84
2022-10-18T21:48:53.475Z,99542.03
2022-10-18T21:51:21.937Z,99539.19
2022-10-18T21:53:51.199Z,99547.22
2022-10-18T21:56:20.573Z,99542.66
2022-10-18T21:58:47.320Z,99534.56
2022-10-18T22:01:17.750Z,99540.88
2022-10-18T22:03:47.356Z,99533.59
2022-10-18T22:06:14.894Z,99531.75
2022-10-18T22:08:47.295Z,99530.34
2022-10-18T22:11:14.281Z,99531.19
2022-10-18T22:13:41.623Z,99540.31
2022-10-18T22:16:11.057Z,99533.22
2022-10-18T22:18:37.476Z,99534.09
2022-10-18T22:21:06.657Z,99531.56
2022-10-18T22:23:52.814Z,99527.38
2022-10-18T22:26:22.769Z,99526.44
2022-10-18T22:28:58.653Z,99523.81
2022-10-18T22:31:27.745Z,99530.16
2022-10-18T22:33:56.572Z,99526.22
2022-10-18T22:36:24.164Z,99532.72
2022-10-18T22:38:50.739Z,99517.25
2022-10-18T22:41:17.299Z,99518.56
2022-10-18T22:43:43.791Z,99515.94
2022-10-18T22:46:11.497Z,99517.16
2022-10-18T22:48:37.863Z,99510.97
2022-10-18T22:51:05.348Z,99519.97
2022-10-18T22:53:32.780Z,99510.78
2022-10-18T22:55:59.429Z,99505.75
2022-10-18T22:58:25.976Z,99502.69
2022-10-18T23:00:59.166Z,99514.75
2022-10-18T23:03:25.563Z,99511.81
2022-10-18T23:05:51.956Z,99515.72
2022-10-18T23:08:18.283Z,99511.34
2022-10-18T23:10:44.863Z,99508.84
2022-10-18T23:13:11.182Z,99510.84
2022-10-18T23:15:40.472Z,99517.41
2022-10-18T23:18:06.934Z,99506.25
2022-10-18T23:20:33.395Z,99508.75
2022-10-18T23:22:59.788Z,99514.38
2022-10-18T23:25:27.170Z,99503.59
2022-10-18T23:27:53.742Z,99506.94
2022-10-18T23:30:20.167Z,99506.59
2022-10-18T23:32:46.677Z,99492.19
2022-10-18T23:35:12.972Z,99495.19
2022-10-18T23:37:39.364Z,99494.47
2022-10-18T23:40:06.380Z,99494.56
2022-10-18T23:42:32.783Z,99490.00
2022-10-18T23:44:59.144Z,99489.88
2022-10-18T23:47:25.857Z,99484.03
2022-10-18T23:49:53.160Z,99475.56
2022-10-18T23:52:19.543Z,99482.44
2022-10-18T23:54:46.130Z,99469.69
2022-10-18T23:57:12.692Z,99466.03
2022-10-18T23:59:38.971Z,99475.44
